Alsville, South Dakota
Current Conditions -  °F | °C
As of 4:53 AM on Friday 31 Oct 2014 (Local Time) from KATY Reporting Station
Clear Clear  
Wind Chill: -14°   Ceiling: Unl
Heat Index: -9°   Visibility: 10mi
Dew Point: -11°   Wind: 6mph
Humidity: 88%   Direction: 340°NNW
Pressure: 30.53"   Gusts: NA
Location:  44.5892°N, 97.2322°W
Report Text: KATY 310953Z AUTO 34005KT 10SM CLR M09/M11 A3053 RMK AO2 SLP365 T10891106
Loading
Personal Weather Stations






























Interactive Weather Map
Tropical Storm Tracking
New forecast layout! Learn more

10-Day Weather Forecast

Advertisements
Track Severe Weather on mobile